Time;durP1;ratioP1;P1;durP2;ratioP2;P2;SDS_P1;SDS_P2;PMS_P1;PMS_P2;Temp;Humidity;BMP_temperature;BMP_pressure;BME280_temperature;BME280_humidity;BME280_pressure;Samples;Min_cycle;Max_cycle;Signal;HPM_P1;HPM_P2
2021/07/06 00:00:12;;;;;;;1.13;0.90;;;19.70;99.90;;;;;;4131079;28;20042;-71
2021/07/06 00:02:13;;;;;;;1.27;0.93;;;19.70;99.90;;;;;;4140874;28;20517;-71
2021/07/06 00:04:13;;;;;;;2.00;1.00;;;19.70;99.90;;;;;;4119449;28;20029;-71
2021/07/06 00:06:14;;;;;;;1.40;0.80;;;19.70;99.90;;;;;;4135132;28;20085;-71
2021/07/06 00:08:16;;;;;;;1.88;1.20;;;19.70;99.90;;;;;;4141648;28;20061;-71
2021/07/06 00:10:19;;;;;;;3.22;1.20;;;19.70;99.90;;;;;;4144134;28;20038;-71
2021/07/06 00:12:20;;;;;;;1.50;0.88;;;19.70;99.90;;;;;;4131704;28;20034;-71
2021/07/06 00:14:20;;;;;;;1.25;1.00;;;19.70;99.90;;;;;;4143971;28;20069;-71
2021/07/06 00:16:21;;;;;;;1.52;1.10;;;19.70;99.90;;;;;;4143513;28;20498;-71
2021/07/06 00:18:22;;;;;;;1.40;0.82;;;19.70;99.90;;;;;;4137342;28;20092;-71
2021/07/06 00:20:26;;;;;;;1.52;0.98;;;19.70;99.90;;;;;;4138062;28;20462;-71
2021/07/06 00:22:27;;;;;;;1.30;0.90;;;19.70;99.90;;;;;;4136632;28;20034;-71
2021/07/06 00:24:27;;;;;;;1.40;0.95;;;19.70;99.90;;;;;;4134036;28;20430;-71
2021/07/06 00:26:28;;;;;;;3.33;0.95;;;19.80;99.90;;;;;;4138743;28;20038;-71
2021/07/06 00:28:28;;;;;;;1.73;0.70;;;19.70;99.90;;;;;;4143402;28;20092;-71
2021/07/06 00:30:29;;;;;;;2.45;0.90;;;19.70;99.90;;;;;;4143703;28;20037;-71
2021/07/06 00:32:30;;;;;;;1.95;0.85;;;19.70;99.90;;;;;;4143425;28;20391;-71
2021/07/06 00:34:30;;;;;;;0.85;0.45;;;19.70;99.90;;;;;;4142758;28;20120;-71
2021/07/06 00:36:31;;;;;;;2.70;1.08;;;19.70;99.90;;;;;;4143527;28;20062;-71
2021/07/06 00:38:32;;;;;;;1.00;0.75;;;19.70;99.90;;;;;;4143675;28;20053;-71
2021/07/06 00:40:32;;;;;;;2.75;1.00;;;19.80;99.90;;;;;;4144423;28;20096;-71
2021/07/06 00:42:34;;;;;;;1.63;0.82;;;19.80;99.90;;;;;;4141948;28;20029;-71
2021/07/06 00:44:35;;;;;;;3.45;1.23;;;19.70;99.90;;;;;;4157741;28;20564;-71
2021/07/06 00:46:35;;;;;;;1.90;0.80;;;19.70;99.90;;;;;;4143703;28;20065;-71
2021/07/06 00:48:36;;;;;;;4.50;0.75;;;19.70;99.90;;;;;;4141594;28;20141;-71
2021/07/06 00:50:37;;;;;;;2.15;0.60;;;19.70;99.90;;;;;;4143905;28;20742;-71
2021/07/06 00:52:38;;;;;;;1.83;0.77;;;19.70;99.90;;;;;;4142383;28;20096;-71
2021/07/06 00:54:38;;;;;;;3.25;0.95;;;19.70;99.90;;;;;;4141617;28;20034;-71
2021/07/06 00:56:40;;;;;;;1.40;0.85;;;19.70;99.90;;;;;;4141541;28;20125;-71
2021/07/06 00:58:45;;;;;;;4.80;0.80;;;19.70;99.90;;;;;;4141632;28;20100;-71
2021/07/06 01:00:46;;;;;;;3.22;0.93;;;19.70;99.90;;;;;;4125592;28;20045;-71
2021/07/06 01:02:47;;;;;;;0.98;0.82;;;19.70;99.90;;;;;;4142008;28;20487;-71
2021/07/06 01:04:48;;;;;;;5.05;0.80;;;19.70;99.90;;;;;;4142962;28;20502;-71
2021/07/06 01:06:48;;;;;;;1.35;0.70;;;19.70;99.90;;;;;;4143268;28;20053;-71
2021/07/06 01:08:49;;;;;;;0.40;0.38;;;19.80;99.90;;;;;;4137188;28;20058;-71
2021/07/06 01:10:52;;;;;;;2.28;1.05;;;19.70;99.90;;;;;;4137305;28;20104;-71
2021/07/06 01:12:53;;;;;;;6.20;0.80;;;19.70;99.90;;;;;;4143272;28;20041;-71
2021/07/06 01:14:54;;;;;;;1.95;0.90;;;19.70;99.90;;;;;;4143321;28;20034;-71
2021/07/06 01:16:54;;;;;;;3.28;0.90;;;19.70;99.90;;;;;;4142950;28;20034;-71
2021/07/06 01:18:55;;;;;;;3.40;1.00;;;19.70;99.90;;;;;;4143030;28;20026;-71
2021/07/06 01:20:56;;;;;;;1.10;1.00;;;19.70;99.90;;;;;;4141971;28;20050;-71
2021/07/06 01:22:58;;;;;;;2.40;0.80;;;19.70;99.90;;;;;;4143128;28;20026;-71
2021/07/06 01:25:00;;;;;;;1.45;0.88;;;19.70;99.90;;;;;;4142870;28;20046;-71
2021/07/06 01:27:00;;;;;;;3.40;1.30;;;19.70;99.90;;;;;;4143535;28;20124;-71
2021/07/06 01:29:01;;;;;;;3.10;0.68;;;19.60;99.90;;;;;;4142768;28;20030;-71
2021/07/06 01:31:02;;;;;;;2.40;1.10;;;19.60;99.90;;;;;;4142642;28;20470;-71
2021/07/06 01:33:04;;;;;;;3.78;0.95;;;19.60;99.90;;;;;;4142744;28;20034;-71
2021/07/06 01:35:05;;;;;;;0.90;0.63;;;19.60;99.90;;;;;;4142719;28;20058;-71
2021/07/06 01:37:06;;;;;;;0.93;0.80;;;19.60;99.90;;;;;;4142750;28;20049;-71
2021/07/06 01:39:07;;;;;;;2.80;0.82;;;19.60;99.90;;;;;;4142772;28;20046;-71
2021/07/06 01:41:07;;;;;;;4.35;1.05;;;19.60;99.90;;;;;;4142805;28;20033;-71
2021/07/06 01:43:08;;;;;;;1.25;0.85;;;19.60;99.90;;;;;;4140974;28;20375;-71
2021/07/06 01:45:15;;;;;;;1.23;0.90;;;19.60;99.90;;;;;;4141113;28;20037;-71
2021/07/06 01:47:15;;;;;;;3.90;0.90;;;19.60;99.90;;;;;;4142721;28;20053;-71
2021/07/06 01:49:17;;;;;;;2.28;1.15;;;19.60;99.90;;;;;;4142652;28;20034;-71
2021/07/06 01:51:17;;;;;;;2.33;1.05;;;19.60;99.90;;;;;;4142625;28;20474;-71
2021/07/06 01:53:21;;;;;;;4.22;1.00;;;19.50;99.90;;;;;;4142646;28;20140;-71
2021/07/06 01:55:29;;;;;;;4.50;1.20;;;19.50;99.90;;;;;;4138369;28;20034;-71
2021/07/06 01:57:29;;;;;;;3.13;1.13;;;19.50;99.90;;;;;;4142593;28;20034;-71
2021/07/06 01:59:30;;;;;;;2.55;1.13;;;19.50;99.90;;;;;;4142224;28;20042;-71
2021/07/06 02:01:31;;;;;;;2.90;1.10;;;19.50;99.90;;;;;;4141090;28;20064;-71
2021/07/06 02:03:32;;;;;;;2.45;1.00;;;19.50;99.90;;;;;;4141149;28;20072;-71
2021/07/06 02:05:36;;;;;;;1.45;0.90;;;19.50;99.90;;;;;;4142410;28;20465;-71
2021/07/06 02:07:37;;;;;;;1.25;0.80;;;19.50;99.90;;;;;;4142659;28;20022;-71
2021/07/06 02:09:38;;;;;;;2.03;0.80;;;19.40;99.90;;;;;;4142241;28;20100;-71
2021/07/06 02:11:38;;;;;;;3.17;0.88;;;19.40;99.90;;;;;;4142159;28;20050;-71
2021/07/06 02:13:39;;;;;;;0.88;0.73;;;19.40;99.90;;;;;;4142812;28;20038;-71
2021/07/06 02:15:40;;;;;;;1.00;0.80;;;19.40;99.90;;;;;;4141153;28;20042;-71
2021/07/06 02:17:43;;;;;;;2.65;0.77;;;19.50;99.90;;;;;;4135235;28;20045;-71
2021/07/06 02:19:44;;;;;;;0.88;0.50;;;19.50;99.90;;;;;;4139222;28;20034;-71
2021/07/06 02:21:45;;;;;;;2.90;1.10;;;19.50;99.90;;;;;;4139259;28;20080;-71
2021/07/06 02:23:47;;;;;;;1.52;1.00;;;19.40;99.90;;;;;;4139861;28;20042;-71
2021/07/06 02:25:49;;;;;;;1.85;0.82;;;19.50;99.90;;;;;;4138309;28;20123;-71
2021/07/06 02:27:50;;;;;;;2.60;0.90;;;19.50;99.90;;;;;;4139298;28;20421;-71
2021/07/06 02:29:51;;;;;;;2.00;0.95;;;19.40;99.90;;;;;;4138745;28;20042;-71
2021/07/06 02:31:51;;;;;;;1.25;0.70;;;19.50;99.90;;;;;;4137876;28;20045;-71
2021/07/06 02:33:52;;;;;;;1.83;0.80;;;19.50;99.90;;;;;;4138841;28;20534;-71
2021/07/06 02:35:53;;;;;;;3.70;0.80;;;19.50;99.90;;;;;;4134680;28;20053;-71
2021/07/06 02:37:55;;;;;;;1.65;0.90;;;19.50;99.90;;;;;;4138400;28;20577;-71
2021/07/06 02:39:56;;;;;;;1.33;0.90;;;19.50;99.90;;;;;;4138903;28;20041;-71
2021/07/06 02:41:57;;;;;;;1.77;0.98;;;19.40;99.90;;;;;;4139044;28;20046;-71
2021/07/06 02:43:58;;;;;;;5.70;1.10;;;19.50;99.90;;;;;;4141983;28;20041;-71
2021/07/06 02:45:58;;;;;;;1.55;1.20;;;19.40;99.90;;;;;;4139508;28;20060;-71
2021/07/06 02:48:00;;;;;;;3.05;1.10;;;19.40;99.90;;;;;;4136978;28;20614;-71
2021/07/06 02:50:01;;;;;;;2.03;1.00;;;19.40;99.90;;;;;;4141853;28;20462;-71
2021/07/06 02:52:02;;;;;;;5.65;1.45;;;19.40;99.90;;;;;;4142526;28;20052;-71
2021/07/06 02:54:03;;;;;;;2.08;1.05;;;19.50;99.90;;;;;;4142390;28;20034;-71
2021/07/06 02:56:04;;;;;;;2.00;1.00;;;19.40;99.90;;;;;;4142322;28;20045;-71
2021/07/06 02:58:05;;;;;;;1.35;1.00;;;19.50;99.90;;;;;;4144244;28;20080;-71
2021/07/06 03:00:21;;;;;;;1.42;1.20;;;19.40;99.90;;;;;;4140940;28;20494;-71
2021/07/06 03:02:22;;;;;;;2.25;1.08;;;19.50;99.90;;;;;;4140863;28;20133;-71
2021/07/06 03:04:22;;;;;;;2.00;1.20;;;19.40;99.90;;;;;;4141787;28;20068;-71
2021/07/06 03:06:23;;;;;;;1.60;0.90;;;19.40;99.90;;;;;;4141370;28;20093;-71
2021/07/06 03:08:25;;;;;;;1.90;1.27;;;19.40;99.90;;;;;;4142044;28;20038;-71
2021/07/06 03:10:30;;;;;;;4.38;1.10;;;19.40;99.90;;;;;;4141219;28;20049;-71
2021/07/06 03:12:30;;;;;;;0.95;0.85;;;19.40;99.90;;;;;;4140545;28;20038;-71
2021/07/06 03:14:31;;;;;;;1.63;0.98;;;19.30;99.90;;;;;;4140186;28;20131;-71
2021/07/06 03:16:32;;;;;;;2.03;1.00;;;19.30;99.90;;;;;;4139383;28;20057;-71
2021/07/06 03:18:32;;;;;;;2.63;1.15;;;19.30;99.90;;;;;;4143997;28;20034;-71
2021/07/06 03:20:33;;;;;;;3.42;1.33;;;19.20;99.90;;;;;;4139250;28;20065;-71
2021/07/06 03:22:34;;;;;;;0.95;0.85;;;19.30;99.90;;;;;;4140394;28;20398;-71
2021/07/06 03:24:35;;;;;;;2.58;1.05;;;19.30;99.90;;;;;;4142745;28;20088;-71
2021/07/06 03:26:35;;;;;;;2.63;1.05;;;19.30;99.90;;;;;;4141831;28;20493;-71
2021/07/06 03:28:38;;;;;;;0.93;0.80;;;19.30;99.90;;;;;;4139238;28;20042;-71
2021/07/06 03:30:39;;;;;;;1.88;1.00;;;19.20;99.90;;;;;;4141040;28;20064;-71
2021/07/06 03:32:40;;;;;;;10.02;1.25;;;19.20;99.90;;;;;;4140593;28;20037;-71
2021/07/06 03:34:42;;;;;;;1.65;1.05;;;19.20;99.90;;;;;;4141446;28;20089;-71
2021/07/06 03:36:42;;;;;;;1.90;1.23;;;19.20;99.90;;;;;;4143715;28;20501;-71
2021/07/06 03:38:43;;;;;;;3.35;1.00;;;19.20;99.90;;;;;;4140715;28;20125;-71
2021/07/06 03:40:45;;;;;;;3.42;1.13;;;19.20;99.90;;;;;;4134413;28;20034;-71
2021/07/06 03:42:46;;;;;;;3.78;1.20;;;19.20;99.90;;;;;;4139317;28;20041;-72
2021/07/06 03:44:47;;;;;;;5.55;1.20;;;19.20;99.90;;;;;;4140943;28;20041;-71
2021/07/06 03:46:48;;;;;;;1.17;0.95;;;19.20;99.90;;;;;;4143759;28;20081;-71
2021/07/06 03:48:48;;;;;;;3.78;0.88;;;19.20;99.90;;;;;;4143315;28;20113;-71
2021/07/06 03:50:49;;;;;;;4.30;1.23;;;19.20;99.90;;;;;;4144532;28;20129;-71
2021/07/06 03:52:53;;;;;;;3.72;1.00;;;19.10;99.90;;;;;;4144468;28;20041;-71
2021/07/06 03:54:54;;;;;;;1.67;1.08;;;19.20;99.90;;;;;;4144835;28;20038;-71
2021/07/06 03:56:55;;;;;;;2.90;1.00;;;19.10;99.90;;;;;;4142833;28;20513;-71
2021/07/06 03:58:56;;;;;;;2.00;1.05;;;19.20;99.90;;;;;;4144496;28;20045;-71
2021/07/06 04:00:56;;;;;;;2.38;1.05;;;19.10;99.90;;;;;;4142297;28;20398;-71
2021/07/06 04:02:58;;;;;;;1.40;1.02;;;19.20;99.90;;;;;;4131819;28;20104;-71
2021/07/06 04:04:58;;;;;;;1.55;1.00;;;19.20;99.90;;;;;;4144530;28;20050;-71
2021/07/06 04:06:59;;;;;;;3.92;1.08;;;19.20;99.90;;;;;;4144350;28;20042;-71
2021/07/06 04:08:59;;;;;;;3.95;0.90;;;19.20;99.90;;;;;;4144519;28;20030;-71
2021/07/06 04:11:00;;;;;;;1.85;1.20;;;19.20;99.90;;;;;;4144631;28;20034;-71
2021/07/06 04:13:00;;;;;;;4.60;0.98;;;19.20;99.90;;;;;;4142690;28;20036;-71
2021/07/06 04:15:01;;;;;;;6.22;1.23;;;19.20;99.90;;;;;;4144177;28;20034;-71
2021/07/06 04:17:02;;;;;;;3.83;1.20;;;19.20;99.90;;;;;;4142795;28;20390;-71
2021/07/06 04:19:05;;;;;;;3.22;1.30;;;19.20;99.90;;;;;;4144193;28;20038;-71
2021/07/06 04:21:07;;;;;;;6.45;1.10;;;19.20;99.90;;;;;;4144221;28;20092;-71
2021/07/06 04:23:09;;;;;;;1.77;1.13;;;19.30;99.90;;;;;;4142645;28;20481;-71
2021/07/06 04:25:10;;;;;;;6.03;1.40;;;19.30;99.90;;;;;;4143999;28;20365;-71
2021/07/06 04:27:11;;;;;;;1.08;0.80;;;19.30;99.90;;;;;;4143765;28;20052;-71
2021/07/06 04:29:12;;;;;;;2.33;0.93;;;19.30;99.90;;;;;;4144556;28;20105;-71
2021/07/06 04:31:12;;;;;;;1.85;1.00;;;19.30;99.90;;;;;;4138792;28;20034;-71
2021/07/06 04:33:13;;;;;;;8.07;1.52;;;19.40;99.90;;;;;;4142877;28;20565;-71
2021/07/06 04:35:14;;;;;;;2.33;1.20;;;19.40;99.90;;;;;;4142704;28;20054;-71
2021/07/06 04:37:15;;;;;;;2.92;1.05;;;19.40;99.90;;;;;;4142079;28;20037;-71
2021/07/06 04:39:17;;;;;;;2.88;1.42;;;19.40;99.90;;;;;;4143775;28;20038;-71
2021/07/06 04:41:17;;;;;;;2.90;1.10;;;19.40;99.90;;;;;;4142412;28;20497;-71
2021/07/06 04:43:18;;;;;;;2.55;0.98;;;19.40;99.90;;;;;;4143204;28;20095;-71
2021/07/06 04:45:19;;;;;;;1.80;1.02;;;19.40;99.90;;;;;;4143595;28;20033;-71
2021/07/06 04:47:19;;;;;;;3.40;1.02;;;19.40;99.90;;;;;;4141984;28;20042;-71
2021/07/06 04:49:20;;;;;;;2.03;1.05;;;19.50;99.90;;;;;;4143529;28;20117;-71
2021/07/06 04:51:21;;;;;;;3.05;1.48;;;19.50;99.90;;;;;;4142382;28;20029;-71
2021/07/06 04:53:23;;;;;;;3.55;1.15;;;19.50;99.90;;;;;;4126231;28;20047;-71
2021/07/06 04:55:23;;;;;;;3.05;1.20;;;19.50;99.90;;;;;;4143839;28;20034;-71
2021/07/06 04:57:24;;;;;;;4.50;1.33;;;19.50;99.90;;;;;;4143700;28;20361;-71
2021/07/06 04:59:25;;;;;;;4.18;1.40;;;19.50;99.90;;;;;;4144141;28;20049;-71
2021/07/06 05:01:25;;;;;;;2.35;1.17;;;19.60;99.90;;;;;;4143289;28;20377;-71
2021/07/06 05:03:28;;;;;;;3.80;1.20;;;19.60;99.90;;;;;;4144010;28;20567;-71
2021/07/06 05:05:29;;;;;;;2.25;1.17;;;19.60;99.90;;;;;;4144152;28;22176;-71
2021/07/06 05:07:30;;;;;;;3.28;1.02;;;19.60;99.90;;;;;;4125295;28;20581;-71
2021/07/06 05:09:32;;;;;;;1.50;1.10;;;19.70;99.90;;;;;;4143180;28;20494;-71
2021/07/06 05:11:33;;;;;;;1.35;0.90;;;19.70;99.90;;;;;;4142803;28;20033;-71
2021/07/06 05:13:33;;;;;;;5.03;1.23;;;19.70;99.90;;;;;;4143702;28;20478;-71
2021/07/06 05:15:34;;;;;;;3.33;1.40;;;19.70;99.90;;;;;;4140696;28;20039;-71
2021/07/06 05:17:35;;;;;;;3.40;1.10;;;19.70;99.90;;;;;;4143809;28;20160;-71
2021/07/06 05:19:35;;;;;;;5.40;1.00;;;19.70;99.90;;;;;;4141848;28;20049;-71
2021/07/06 05:21:36;;;;;;;6.53;1.30;;;19.70;99.90;;;;;;4143213;28;20390;-71
2021/07/06 05:23:37;;;;;;;3.60;1.05;;;19.70;99.90;;;;;;4132760;28;20042;-71
2021/07/06 05:25:38;;;;;;;3.70;1.40;;;19.70;99.90;;;;;;4141871;28;20490;-71
2021/07/06 05:27:38;;;;;;;1.65;1.20;;;19.80;99.90;;;;;;4141744;28;20033;-71
2021/07/06 05:29:39;;;;;;;3.50;1.35;;;19.70;99.90;;;;;;4142204;28;20129;-71
2021/07/06 05:31:39;;;;;;;1.45;1.05;;;19.70;99.90;;;;;;4139840;28;20057;-71
2021/07/06 05:33:40;;;;;;;1.67;0.95;;;19.80;99.90;;;;;;4154769;28;20146;-71
2021/07/06 05:35:41;;;;;;;6.93;1.20;;;19.70;99.90;;;;;;4147956;28;20044;-71
2021/07/06 05:37:41;;;;;;;2.65;1.20;;;19.70;99.90;;;;;;4136733;28;20038;-71
2021/07/06 05:39:44;;;;;;;1.67;1.20;;;19.70;99.90;;;;;;4152430;28;20033;-71
2021/07/06 05:41:44;;;;;;;5.28;1.45;;;19.70;99.90;;;;;;4146724;28;20064;-71
2021/07/06 05:43:45;;;;;;;3.80;1.13;;;19.70;99.90;;;;;;4141453;28;20394;-71
2021/07/06 05:45:46;;;;;;;3.72;1.17;;;19.80;99.90;;;;;;4143632;28;20116;-71
2021/07/06 05:47:46;;;;;;;4.68;1.40;;;19.70;99.90;;;;;;4147495;28;20037;-71
2021/07/06 05:49:47;;;;;;;1.45;0.73;;;19.80;99.90;;;;;;4143689;28;20034;-71
2021/07/06 05:51:50;;;;;;;3.75;1.33;;;19.80;99.90;;;;;;4128122;28;20080;-71
2021/07/06 05:53:50;;;;;;;4.32;1.48;;;19.80;99.90;;;;;;4142680;28;20528;-71
2021/07/06 05:55:51;;;;;;;1.80;0.98;;;19.80;99.90;;;;;;4136556;28;20163;-71
2021/07/06 05:57:52;;;;;;;4.15;1.38;;;19.80;99.90;;;;;;4136928;28;20556;-71
2021/07/06 05:59:52;;;;;;;2.78;0.90;;;19.80;99.90;;;;;;4138674;28;20037;-71
2021/07/06 06:01:53;;;;;;;4.25;1.52;;;19.80;99.90;;;;;;4137394;28;20133;-71
2021/07/06 06:03:53;;;;;;;4.25;1.40;;;19.80;99.90;;;;;;4139092;28;20084;-71
2021/07/06 06:05:54;;;;;;;5.50;0.93;;;19.80;99.90;;;;;;4137958;28;20050;-71
2021/07/06 06:07:55;;;;;;;2.22;1.08;;;19.80;99.90;;;;;;4139389;28;20041;-71
2021/07/06 06:09:55;;;;;;;1.77;1.10;;;19.80;99.90;;;;;;4130670;28;20041;-71
2021/07/06 06:11:56;;;;;;;2.58;1.20;;;19.80;99.90;;;;;;4138403;28;20403;-71
2021/07/06 06:13:57;;;;;;;3.97;1.33;;;19.80;99.90;;;;;;4139931;28;20026;-71
2021/07/06 06:15:57;;;;;;;3.13;1.55;;;19.70;99.90;;;;;;4138164;28;20041;-71
2021/07/06 06:17:58;;;;;;;2.15;1.00;;;19.70;99.90;;;;;;4137525;28;20453;-71
2021/07/06 06:19:59;;;;;;;2.22;1.38;;;19.70;99.90;;;;;;4138717;28;20030;-71
2021/07/06 06:21:59;;;;;;;3.50;1.60;;;19.70;99.90;;;;;;4138556;28;20033;-71
2021/07/06 06:24:00;;;;;;;2.15;1.27;;;19.70;99.90;;;;;;4139223;28;20121;-71
2021/07/06 06:26:01;;;;;;;9.00;1.33;;;19.70;99.90;;;;;;4134792;28;20041;-71
2021/07/06 06:28:01;;;;;;;4.03;1.27;;;19.70;99.90;;;;;;4139457;28;20041;-71
2021/07/06 06:30:04;;;;;;;3.10;1.08;;;19.70;99.90;;;;;;4138762;28;20101;-72
2021/07/06 06:32:05;;;;;;;5.20;1.35;;;19.60;99.90;;;;;;4136299;28;20056;-72
2021/07/06 06:34:06;;;;;;;5.18;1.20;;;19.60;99.90;;;;;;4135413;28;20506;-73
2021/07/06 06:36:06;;;;;;;4.53;1.15;;;19.60;99.90;;;;;;4136461;28;20513;-73
2021/07/06 06:38:08;;;;;;;4.18;1.20;;;19.70;99.90;;;;;;4137773;28;20034;-72
2021/07/06 06:40:09;;;;;;;3.35;1.20;;;19.60;99.90;;;;;;4137010;28;20425;-73
2021/07/06 06:42:10;;;;;;;2.13;1.07;;;19.70;99.90;;;;;;4135505;28;20042;-73
2021/07/06 06:44:11;;;;;;;2.47;1.20;;;19.70;99.90;;;;;;4139079;28;20709;-73
2021/07/06 06:46:11;;;;;;;2.70;1.10;;;19.70;99.90;;;;;;4136245;28;20545;-73
2021/07/06 06:48:12;;;;;;;4.10;1.30;;;19.60;99.90;;;;;;4136174;28;20042;-73
2021/07/06 06:50:14;;;;;;;2.45;1.00;;;19.60;99.90;;;;;;4136892;28;20056;-73
2021/07/06 06:52:15;;;;;;;9.27;1.52;;;19.60;99.90;;;;;;4136217;28;20096;-73
2021/07/06 06:54:17;;;;;;;4.90;1.20;;;19.60;99.90;;;;;;4135926;28;20100;-72
2021/07/06 06:56:17;;;;;;;3.00;1.15;;;19.60;99.90;;;;;;4134919;28;20133;-72
2021/07/06 06:58:18;;;;;;;2.53;1.10;;;19.60;99.90;;;;;;4137151;28;20470;-73
2021/07/06 07:00:18;;;;;;;4.05;1.27;;;19.60;99.90;;;;;;4136588;28;20042;-73
2021/07/06 07:02:20;;;;;;;6.28;1.73;;;19.60;99.90;;;;;;4137027;28;20125;-73
2021/07/06 07:04:20;;;;;;;2.88;1.10;;;19.70;99.90;;;;;;4137726;28;20409;-72
2021/07/06 07:06:21;;;;;;;4.03;1.38;;;19.70;99.90;;;;;;4136285;28;20486;-73
2021/07/06 07:08:21;;;;;;;6.55;1.58;;;19.70;99.90;;;;;;4133550;28;20332;-73
2021/07/06 07:10:22;;;;;;;1.73;1.00;;;19.70;99.90;;;;;;4129785;28;20212;-73
2021/07/06 07:12:23;;;;;;;1.75;1.00;;;19.70;99.90;;;;;;4134050;28;20133;-72
2021/07/06 07:14:23;;;;;;;2.25;0.93;;;19.70;99.90;;;;;;4134207;28;20033;-72
2021/07/06 07:16:24;;;;;;;1.42;1.17;;;19.80;99.90;;;;;;4133017;28;20057;-73
2021/07/06 07:18:25;;;;;;;5.47;1.20;;;19.80;99.90;;;;;;4136539;28;20034;-71
2021/07/06 07:20:25;;;;;;;2.20;1.30;;;19.80;99.90;;;;;;4137151;28;20200;-72
2021/07/06 07:22:26;;;;;;;2.08;1.10;;;19.80;99.90;;;;;;4136017;28;20033;-71
2021/07/06 07:24:27;;;;;;;3.58;1.30;;;19.90;99.90;;;;;;4136679;28;20030;-71
2021/07/06 07:26:27;;;;;;;1.08;0.90;;;19.90;99.90;;;;;;4137194;28;20044;-71
2021/07/06 07:28:28;;;;;;;3.38;1.02;;;19.90;99.90;;;;;;4139376;28;20026;-71
2021/07/06 07:30:28;;;;;;;3.00;1.08;;;19.90;99.90;;;;;;4137686;28;20041;-71
2021/07/06 07:32:29;;;;;;;3.97;1.40;;;19.90;99.90;;;;;;4136960;28;20038;-71
2021/07/06 07:34:30;;;;;;;2.83;1.30;;;19.90;99.90;;;;;;4136756;28;20497;-71
2021/07/06 07:36:30;;;;;;;3.15;1.63;;;19.90;99.90;;;;;;4141041;28;20041;-71
2021/07/06 07:38:31;;;;;;;3.60;1.10;;;19.90;99.90;;;;;;4140669;28;20018;-71
2021/07/06 07:40:32;;;;;;;2.92;1.20;;;20.00;99.90;;;;;;4138590;28;20089;-71
2021/07/06 07:42:33;;;;;;;2.05;1.45;;;20.00;99.90;;;;;;4138572;28;20451;-71
2021/07/06 07:44:34;;;;;;;2.30;1.05;;;20.00;99.90;;;;;;4138203;28;20026;-71
2021/07/06 07:46:35;;;;;;;1.77;0.88;;;20.00;99.90;;;;;;4135947;28;20520;-71
2021/07/06 07:48:35;;;;;;;4.70;1.10;;;19.90;99.90;;;;;;4138994;28;20045;-71
2021/07/06 07:50:36;;;;;;;1.85;1.10;;;20.00;99.90;;;;;;4138486;28;20375;-71
2021/07/06 07:52:36;;;;;;;1.70;1.17;;;20.00;99.90;;;;;;4139918;28;20091;-71
2021/07/06 07:54:37;;;;;;;1.75;1.02;;;20.00;99.90;;;;;;4138978;28;20034;-71
2021/07/06 07:56:40;;;;;;;2.38;1.23;;;20.00;99.90;;;;;;4134520;28;20482;-71
2021/07/06 07:58:41;;;;;;;1.73;0.88;;;20.00;99.90;;;;;;4140637;28;20045;-71
2021/07/06 08:00:41;;;;;;;3.58;1.08;;;20.00;99.90;;;;;;4141113;28;20116;-71
2021/07/06 08:02:43;;;;;;;1.73;1.10;;;20.00;99.90;;;;;;4137464;28;20038;-71
2021/07/06 08:04:44;;;;;;;1.63;0.90;;;19.90;99.90;;;;;;4138206;28;20056;-71
2021/07/06 08:06:44;;;;;;;7.82;1.40;;;19.90;99.90;;;;;;4136822;28;20066;-71
2021/07/06 08:08:45;;;;;;;2.10;1.20;;;19.90;99.90;;;;;;4138074;28;20475;-71
2021/07/06 08:10:52;;;;;;;2.35;1.30;;;19.90;99.90;;;;;;4139220;28;20053;-71
2021/07/06 08:12:54;;;;;;;2.28;1.05;;;20.00;99.90;;;;;;4137483;28;20054;-71
2021/07/06 08:14:54;;;;;;;1.65;1.15;;;20.00;99.90;;;;;;4137541;28;20133;-71
2021/07/06 08:16:57;;;;;;;2.63;1.10;;;20.00;99.90;;;;;;4138180;28;20116;-71
2021/07/06 08:18:58;;;;;;;3.97;1.33;;;20.00;99.90;;;;;;4138543;28;20058;-71
2021/07/06 08:20:58;;;;;;;3.63;1.40;;;20.10;99.90;;;;;;4138152;28;20042;-71
2021/07/06 08:22:59;;;;;;;3.70;1.17;;;20.10;99.90;;;;;;4137112;28;20057;-71
2021/07/06 08:25:00;;;;;;;4.63;1.42;;;20.10;99.90;;;;;;4137713;28;20298;-71
2021/07/06 08:27:00;;;;;;;1.75;1.02;;;20.10;99.90;;;;;;4137883;28;20065;-71
2021/07/06 08:29:01;;;;;;;2.25;1.20;;;20.10;99.90;;;;;;4138697;28;20034;-71
2021/07/06 08:31:01;;;;;;;1.25;0.80;;;20.10;99.90;;;;;;4139291;28;20053;-71
2021/07/06 08:33:02;;;;;;;3.88;1.20;;;20.20;99.90;;;;;;4136068;28;20401;-71
2021/07/06 08:35:05;;;;;;;2.97;1.20;;;20.20;99.90;;;;;;4138740;28;20057;-71
2021/07/06 08:37:06;;;;;;;2.55;1.10;;;20.20;99.90;;;;;;4138352;28;20490;-71
2021/07/06 08:39:07;;;;;;;2.67;1.10;;;20.20;99.90;;;;;;4136340;28;20057;-71
2021/07/06 08:41:07;;;;;;;2.55;0.95;;;20.20;99.90;;;;;;4139704;28;20092;-71
2021/07/06 08:43:08;;;;;;;2.50;0.88;;;20.30;99.90;;;;;;4138182;28;20110;-71
2021/07/06 08:45:10;;;;;;;1.15;0.80;;;20.20;99.90;;;;;;4138307;28;20037;-71
2021/07/06 08:47:16;;;;;;;1.42;0.88;;;20.30;99.90;;;;;;4138554;28;20038;-71
2021/07/06 08:49:19;;;;;;;7.72;1.00;;;20.30;99.90;;;;;;4138163;28;20038;-71
2021/07/06 08:51:21;;;;;;;1.67;1.00;;;20.40;99.90;;;;;;4138475;28;20091;-71
2021/07/06 08:53:22;;;;;;;1.92;0.93;;;20.40;99.90;;;;;;4138596;28;20034;-71
2021/07/06 08:55:22;;;;;;;1.27;0.90;;;20.40;99.90;;;;;;4137939;28;20085;-71
2021/07/06 08:57:23;;;;;;;3.08;0.98;;;20.50;99.90;;;;;;4136652;28;20045;-71
2021/07/06 08:59:24;;;;;;;3.53;0.85;;;20.50;99.90;;;;;;4137074;28;20026;-71
2021/07/06 09:01:28;;;;;;;2.10;0.57;;;20.50;99.90;;;;;;4135673;28;20449;-71
2021/07/06 09:03:54;;;;;;;0.95;0.60;;;20.50;99.90;;;;;;4137504;28;20038;-70
2021/07/06 09:06:10;;;;;;;1.70;0.90;;;20.60;99.90;;;;;;4138038;28;20041;-71
2021/07/06 09:08:16;;;;;;;0.73;0.70;;;20.60;99.90;;;;;;4136277;28;20042;-71
2021/07/06 09:10:19;;;;;;;1.05;0.50;;;20.60;99.90;;;;;;4137518;28;20046;-71
2021/07/06 09:12:33;;;;;;;1.08;0.60;;;20.60;99.90;;;;;;4136452;28;20034;-71
2021/07/06 09:14:38;;;;;;;2.40;0.90;;;20.70;99.90;;;;;;4136555;28;20021;-71
2021/07/06 09:16:38;;;;;;;3.78;0.80;;;20.70;99.90;;;;;;4135359;28;20038;-71
2021/07/06 09:18:41;;;;;;;1.45;0.70;;;20.70;99.90;;;;;;4136422;28;20050;-71
2021/07/06 09:20:56;;;;;;;1.52;0.80;;;20.70;99.90;;;;;;4136665;28;20387;-71
2021/07/06 09:23:24;;;;;;;0.50;0.47;;;20.60;99.90;;;;;;4137278;28;20038;-71
2021/07/06 09:25:26;;;;;;;0.70;0.55;;;20.60;99.90;;;;;;4138042;28;20045;-71
2021/07/06 09:27:32;;;;;;;0.50;0.50;;;20.70;99.90;;;;;;4136834;28;20063;-73
2021/07/06 09:29:32;;;;;;;0.63;0.40;;;20.70;99.90;;;;;;4135885;28;20037;-71
2021/07/06 09:31:36;;;;;;;0.43;0.40;;;20.70;99.90;;;;;;4136224;28;20121;-71
2021/07/06 09:33:47;;;;;;;0.40;0.30;;;20.70;99.90;;;;;;4135265;28;20468;-71
2021/07/06 09:35:49;;;;;;;0.30;0.30;;;20.80;99.90;;;;;;4137410;28;20474;-72
2021/07/06 09:37:51;;;;;;;0.57;0.40;;;20.70;99.90;;;;;;4152017;28;20141;-71
2021/07/06 09:39:52;;;;;;;1.13;0.45;;;20.80;99.90;;;;;;4138040;28;20161;-71
2021/07/06 09:42:01;;;;;;;2.53;0.50;;;20.80;99.90;;;;;;4138228;28;20057;-71
2021/07/06 09:44:16;;;;;;;0.57;0.50;;;20.90;99.90;;;;;;4136569;28;20081;-72
2021/07/06 09:46:17;;;;;;;0.80;0.63;;;21.00;99.90;;;;;;4137699;28;20513;-71
2021/07/06 09:48:18;;;;;;;2.55;0.68;;;21.10;99.90;;;;;;4136902;28;20049;-72
2021/07/06 09:50:18;;;;;;;0.70;0.47;;;21.10;99.90;;;;;;4137618;28;20037;-72
2021/07/06 09:52:21;;;;;;;0.60;0.50;;;21.20;99.90;;;;;;4135780;28;20510;-72
2021/07/06 09:54:49;;;;;;;1.35;0.63;;;21.20;99.90;;;;;;4138343;28;20182;-71
2021/07/06 09:56:51;;;;;;;5.88;0.50;;;21.20;99.90;;;;;;4132237;28;20568;-71
2021/07/06 09:58:57;;;;;;;1.80;0.50;;;21.20;99.90;;;;;;4136625;28;20049;-71
2021/07/06 10:01:04;;;;;;;2.05;0.60;;;21.20;99.90;;;;;;4137010;28;20510;-71
2021/07/06 10:03:05;;;;;;;3.85;0.70;;;21.30;99.90;;;;;;4137012;28;20057;-71
2021/07/06 10:05:08;;;;;;;1.55;0.85;;;21.30;99.90;;;;;;4138976;28;20026;-71
2021/07/06 10:07:09;;;;;;;2.15;0.70;;;21.40;99.90;;;;;;4118974;28;20537;-71
2021/07/06 10:09:10;;;;;;;1.90;0.57;;;21.40;99.90;;;;;;4134259;28;20025;-71
2021/07/06 10:11:11;;;;;;;2.25;0.65;;;21.50;99.90;;;;;;4151135;28;20042;-71
2021/07/06 10:13:11;;;;;;;0.68;0.43;;;21.60;99.90;;;;;;4135653;28;20038;-71
2021/07/06 10:15:14;;;;;;;1.13;0.60;;;21.60;99.90;;;;;;4136791;28;20371;-72
2021/07/06 10:17:15;;;;;;;2.03;0.80;;;21.70;99.90;;;;;;4138225;28;20046;-71
2021/07/06 10:19:16;;;;;;;0.70;0.40;;;21.80;99.90;;;;;;4139658;28;20042;-71
2021/07/06 10:21:17;;;;;;;0.60;0.40;;;21.80;99.90;;;;;;4137458;28;20132;-72
2021/07/06 10:23:20;;;;;;;1.05;0.45;;;21.80;99.90;;;;;;4136200;28;20389;-71
2021/07/06 10:25:32;;;;;;;9.90;0.70;;;22.00;99.90;;;;;;4138235;28;20486;-72
2021/07/06 10:27:36;;;;;;;2.75;0.47;;;22.10;99.90;;;;;;4135284;28;20077;-71
2021/07/06 10:29:36;;;;;;;1.35;0.60;;;22.10;99.90;;;;;;4135582;28;20034;-71
2021/07/06 10:31:42;;;;;;;3.58;0.90;;;22.20;99.90;;;;;;4135319;28;20072;-72
2021/07/06 10:33:47;;;;;;;1.33;0.60;;;22.30;99.90;;;;;;4140076;28;20041;-72